ARG1372 SAEZ-SPJC
Flight info
| Callsign | ARG1372 |
|---|---|
| Flight time | 4h 9m |
| Altitude | 32000 |
| Route | BIVAM1E BIVAM UW8 ERE UT680 TUC UL550 SCO |
| Aircraft | B38M/M-MSDFGHILORVW/SB1 |
Departure
| Time | 2026-04-29 23:45 |
|---|---|
| Airport | Ezeiza International Airport - Ministro Pistarini (SAEZ) |
Arrival
| Time | 2026-04-30 03:55 |
|---|---|
| Airport | Jorge Chávez International Airport (SPJC) |
| Time | Latitude | Longitude | Altitude | Speed | Heading |
|---|---|---|---|---|---|
| 2026-04-29 23:03 | -34.81252 | -58.53812 | 77 ft | 0 kts | 203° |
| 2026-04-29 23:32 | -34.81249 | -58.53811 | 77 ft | 3 kts | 203° |
| 2026-04-29 23:32 | -34.81225 | -58.53797 | 70 ft | 4 kts | 205° |
| 2026-04-29 23:32 | -34.81206 | -58.53787 | 71 ft | 4 kts | 214° |
| 2026-04-29 23:33 | -34.81195 | -58.53764 | 66 ft | 2 kts | 259° |
| 2026-04-29 23:33 | -34.81191 | -58.53735 | 67 ft | 4 kts | 258° |
| 2026-04-29 23:33 | -34.81184 | -58.53703 | 69 ft | 4 kts | 256° |
| 2026-04-29 23:33 | -34.81178 | -58.53671 | 71 ft | 4 kts | 256° |
| 2026-04-29 23:34 | -34.81173 | -58.53647 | 70 ft | 4 kts | 257° |
| 2026-04-29 23:34 | -34.81167 | -58.53615 | 76 ft | 4 kts | 258° |
| 2026-04-29 23:34 | -34.81163 | -58.53586 | 78 ft | 1 kts | 259° |
| 2026-04-29 23:34 | -34.81160 | -58.53557 | 72 ft | 4 kts | 274° |
| 2026-04-29 23:35 | -34.81162 | -58.53528 | 75 ft | 1 kts | 269° |
| 2026-04-29 23:35 | -34.81163 | -58.53501 | 78 ft | 2 kts | 274° |
| 2026-04-29 23:35 | -34.81165 | -58.53474 | 84 ft | 4 kts | 274° |
| 2026-04-29 23:35 | -34.81165 | -58.53465 | 82 ft | 0 kts | 274° |
| 2026-04-29 23:38 | -34.81164 | -58.53481 | 84 ft | 4 kts | 276° |
| 2026-04-29 23:38 | -34.81160 | -58.53526 | 78 ft | 7 kts | 271° |
| 2026-04-29 23:38 | -34.81188 | -58.53583 | 78 ft | 10 kts | 205° |
| 2026-04-29 23:39 | -34.81263 | -58.53588 | 70 ft | 12 kts | 178° |
| 2026-04-29 23:39 | -34.81352 | -58.53590 | 76 ft | 13 kts | 187° |
| 2026-04-29 23:39 | -34.81446 | -58.53620 | 69 ft | 15 kts | 199° |
| 2026-04-29 23:39 | -34.81527 | -58.53663 | 77 ft | 11 kts | 210° |
| 2026-04-29 23:40 | -34.81588 | -58.53721 | 77 ft | 12 kts | 224° |
| 2026-04-29 23:40 | -34.81650 | -58.53791 | 77 ft | 11 kts | 223° |
| 2026-04-29 23:40 | -34.81704 | -58.53858 | 72 ft | 12 kts | 233° |
| 2026-04-29 23:40 | -34.81748 | -58.53948 | 77 ft | 13 kts | 240° |
| 2026-04-29 23:41 | -34.81778 | -58.54013 | 75 ft | 14 kts | 243° |
| 2026-04-29 23:41 | -34.81791 | -58.54130 | 68 ft | 15 kts | 280° |
| 2026-04-29 23:41 | -34.81776 | -58.54249 | 72 ft | 12 kts | 275° |
| 2026-04-29 23:41 | -34.81765 | -58.54355 | 72 ft | 13 kts | 278° |
| 2026-04-29 23:42 | -34.81752 | -58.54471 | 70 ft | 14 kts | 275° |
| 2026-04-29 23:42 | -34.81762 | -58.54596 | 77 ft | 15 kts | 253° |
| 2026-04-29 23:42 | -34.81780 | -58.54728 | 75 ft | 16 kts | 272° |
| 2026-04-29 23:42 | -34.81751 | -58.54915 | 73 ft | 17 kts | 282° |
| 2026-04-29 23:43 | -34.81735 | -58.55002 | 70 ft | 15 kts | 283° |
| 2026-04-29 23:43 | -34.81712 | -58.55128 | 78 ft | 11 kts | 282° |
| 2026-04-29 23:43 | -34.81697 | -58.55210 | 74 ft | 8 kts | 282° |
| 2026-04-29 23:43 | -34.81700 | -58.55285 | 76 ft | 9 kts | 248° |
| 2026-04-29 23:44 | -34.81750 | -58.55338 | 75 ft | 10 kts | 199° |
| 2026-04-29 23:44 | -34.81818 | -58.55329 | 82 ft | 10 kts | 156° |
| 2026-04-29 23:44 | -34.81880 | -58.55288 | 82 ft | 11 kts | 151° |
| 2026-04-29 23:44 | -34.81938 | -58.55158 | 85 ft | 36 kts | 102° |
| 2026-04-29 23:45 | -34.82046 | -58.54551 | 83 ft | 110 kts | 102° |
| 2026-04-29 23:45 | -34.82257 | -58.53380 | 92 ft | 170 kts | 103° |
| 2026-04-29 23:45 | -34.82506 | -58.51929 | 653 ft | 180 kts | 103° |
| 2026-04-29 23:45 | -34.82803 | -58.50436 | 1353 ft | 183 kts | 115° |
| 2026-04-29 23:46 | -34.83528 | -58.49112 | 1725 ft | 200 kts | 142° |
| 2026-04-29 23:46 | -34.84656 | -58.48019 | 2231 ft | 217 kts | 146° |
| 2026-04-29 23:46 | -34.85808 | -58.46726 | 2868 ft | 234 kts | 135° |
| 2026-04-29 23:46 | -34.86776 | -58.45027 | 3465 ft | 255 kts | 121° |
| 2026-04-29 23:47 | -34.87614 | -58.43083 | 4294 ft | 262 kts | 119° |
| 2026-04-29 23:47 | -34.88455 | -58.41077 | 5083 ft | 272 kts | 119° |
| 2026-04-29 23:47 | -34.89353 | -58.39009 | 5832 ft | 279 kts | 125° |
| 2026-04-29 23:47 | -34.90611 | -58.37200 | 6385 ft | 284 kts | 139° |
| 2026-04-29 23:48 | -34.91781 | -58.35275 | 7307 ft | 287 kts | 116° |
| 2026-04-29 23:48 | -34.92207 | -58.32828 | 7907 ft | 304 kts | 89° |
| 2026-04-29 23:48 | -34.91767 | -58.30336 | 8793 ft | 306 kts | 65° |
| 2026-04-29 23:48 | -34.90566 | -58.28174 | 9481 ft | 311 kts | 41° |
| 2026-04-29 23:49 | -34.88780 | -58.26740 | 10183 ft | 309 kts | 15° |
| 2026-04-29 23:49 | -34.86673 | -58.26393 | 10697 ft | 308 kts | 347° |
| 2026-04-29 23:49 | -34.84689 | -58.27271 | 11241 ft | 303 kts | 320° |
| 2026-04-29 23:49 | -34.83082 | -58.28892 | 12011 ft | 301 kts | 313° |
| 2026-04-29 23:50 | -34.81463 | -58.30533 | 12699 ft | 307 kts | 317° |
| 2026-04-29 23:50 | -34.79665 | -58.32009 | 13417 ft | 314 kts | 322° |
| 2026-04-29 23:50 | -34.75920 | -58.34878 | 14676 ft | 323 kts | 321° |
| 2026-04-29 23:51 | -34.74007 | -58.36356 | 15225 ft | 328 kts | 321° |
| 2026-04-29 23:51 | -34.72088 | -58.37821 | 15931 ft | 327 kts | 321° |
| 2026-04-29 23:51 | -34.70140 | -58.39290 | 16489 ft | 332 kts | 321° |
| 2026-04-29 23:51 | -34.68165 | -58.40782 | 17031 ft | 336 kts | 321° |
| 2026-04-29 23:52 | -34.66170 | -58.42298 | 17613 ft | 339 kts | 321° |
| 2026-04-29 23:52 | -34.64165 | -58.43825 | 18200 ft | 342 kts | 320° |
| 2026-04-29 23:52 | -34.62140 | -58.45368 | 18638 ft | 347 kts | 320° |
| 2026-04-29 23:52 | -34.60080 | -58.46935 | 19045 ft | 352 kts | 320° |
| 2026-04-29 23:53 | -34.57994 | -58.48517 | 19485 ft | 355 kts | 320° |
| 2026-04-29 23:53 | -34.55885 | -58.50108 | 19947 ft | 358 kts | 320° |
| 2026-04-29 23:53 | -34.53759 | -58.51711 | 20346 ft | 363 kts | 320° |
| 2026-04-29 23:53 | -34.51594 | -58.53344 | 20710 ft | 368 kts | 320° |
| 2026-04-29 23:54 | -34.49417 | -58.55010 | 21123 ft | 372 kts | 319° |
| 2026-04-29 23:54 | -34.47227 | -58.56697 | 21619 ft | 373 kts | 319° |
| 2026-04-29 23:54 | -34.45038 | -58.58385 | 22074 ft | 375 kts | 319° |
| 2026-04-29 23:54 | -34.42820 | -58.60101 | 22425 ft | 381 kts | 319° |
| 2026-04-29 23:55 | -34.40559 | -58.61832 | 22769 ft | 387 kts | 320° |
| 2026-04-29 23:55 | -34.38257 | -58.63551 | 23233 ft | 390 kts | 320° |
| 2026-04-29 23:55 | -34.35935 | -58.65280 | 23610 ft | 394 kts | 320° |
| 2026-04-29 23:55 | -34.33621 | -58.67012 | 23869 ft | 399 kts | 319° |
| 2026-04-29 23:56 | -34.31253 | -58.68787 | 24208 ft | 402 kts | 319° |
| 2026-04-29 23:56 | -34.28874 | -58.70574 | 24617 ft | 403 kts | 319° |
| 2026-04-29 23:56 | -34.26491 | -58.72377 | 24983 ft | 405 kts | 318° |
| 2026-04-29 23:56 | -34.24088 | -58.74203 | 25240 ft | 411 kts | 318° |
| 2026-04-29 23:57 | -34.21658 | -58.76058 | 25498 ft | 416 kts | 318° |
| 2026-04-29 23:57 | -34.19218 | -58.77918 | 26001 ft | 414 kts | 317° |
| 2026-04-29 23:57 | -34.16770 | -58.79764 | 26358 ft | 417 kts | 317° |
| 2026-04-29 23:57 | -34.14287 | -58.81625 | 26515 ft | 423 kts | 317° |
| 2026-04-29 23:58 | -34.11783 | -58.83497 | 26982 ft | 422 kts | 317° |
| 2026-04-29 23:58 | -34.09278 | -58.85368 | 27279 ft | 426 kts | 317° |
| 2026-04-29 23:58 | -34.06750 | -58.87271 | 27540 ft | 429 kts | 316° |
| 2026-04-29 23:58 | -34.04221 | -58.89181 | 28015 ft | 428 kts | 316° |
| 2026-04-29 23:59 | -34.01695 | -58.91083 | 28395 ft | 429 kts | 316° |
| 2026-04-29 23:59 | -33.99148 | -58.92999 | 28572 ft | 435 kts | 316° |
| 2026-04-29 23:59 | -33.96565 | -58.94948 | 28722 ft | 441 kts | 316° |
| 2026-04-30 00:00 | -33.91237 | -58.98834 | 29143 ft | 450 kts | 317° |
| 2026-04-30 00:00 | -33.88550 | -59.00796 | 29410 ft | 453 kts | 317° |
| 2026-04-30 00:00 | -33.85844 | -59.02772 | 29664 ft | 456 kts | 316° |
| 2026-04-30 00:00 | -33.83128 | -59.04753 | 29963 ft | 457 kts | 317° |
| 2026-04-30 00:01 | -33.80406 | -59.06747 | 30232 ft | 458 kts | 316° |
| 2026-04-30 00:01 | -33.77705 | -59.08781 | 30444 ft | 460 kts | 316° |
| 2026-04-30 00:01 | -33.74989 | -59.10821 | 30720 ft | 461 kts | 316° |
| 2026-04-30 00:01 | -33.72265 | -59.12861 | 30982 ft | 462 kts | 316° |
| 2026-04-30 00:02 | -33.69536 | -59.14903 | 31310 ft | 461 kts | 316° |
| 2026-04-30 00:02 | -33.66815 | -59.16938 | 31682 ft | 460 kts | 316° |
| 2026-04-30 00:02 | -33.64098 | -59.18967 | 31948 ft | 460 kts | 316° |
| 2026-04-30 00:03 | -33.58677 | -59.23012 | 31938 ft | 456 kts | 316° |
| 2026-04-30 00:03 | -33.53320 | -59.27005 | 31967 ft | 457 kts | 316° |
| 2026-04-30 00:04 | -33.47888 | -59.31046 | 31969 ft | 456 kts | 316° |
| 2026-04-30 00:04 | -33.42522 | -59.35033 | 32390 ft | 456 kts | 316° |
| 2026-04-30 00:04 | -33.39794 | -59.37057 | 32668 ft | 455 kts | 317° |
| 2026-04-30 00:05 | -33.37143 | -59.39023 | 32996 ft | 454 kts | 317° |
| 2026-04-30 00:05 | -33.34460 | -59.41011 | 33334 ft | 453 kts | 317° |
| 2026-04-30 00:05 | -33.31782 | -59.42994 | 33664 ft | 452 kts | 317° |
| 2026-04-30 00:05 | -33.29113 | -59.44969 | 33988 ft | 451 kts | 317° |
| 2026-04-30 00:06 | -33.26442 | -59.46944 | 34266 ft | 450 kts | 317° |
| 2026-04-30 00:06 | -33.23785 | -59.48907 | 34530 ft | 449 kts | 317° |
| 2026-04-30 00:06 | -33.21136 | -59.50862 | 34769 ft | 447 kts | 317° |
| 2026-04-30 00:06 | -33.18491 | -59.52814 | 35029 ft | 446 kts | 317° |
| 2026-04-30 00:07 | -33.15852 | -59.54759 | 35285 ft | 445 kts | 317° |
| 2026-04-30 00:07 | -33.13220 | -59.56698 | 35526 ft | 444 kts | 317° |
| 2026-04-30 00:07 | -33.10597 | -59.58630 | 35760 ft | 443 kts | 317° |
| 2026-04-30 00:07 | -33.07978 | -59.60556 | 35968 ft | 441 kts | 317° |
| 2026-04-30 00:08 | -33.05361 | -59.62481 | 35999 ft | 443 kts | 317° |
| 2026-04-30 00:08 | -33.00139 | -59.66315 | 35963 ft | 440 kts | 317° |
| 2026-04-30 00:09 | -32.94925 | -59.70139 | 35983 ft | 440 kts | 317° |
| 2026-04-30 00:09 | -32.89708 | -59.73959 | 35985 ft | 440 kts | 317° |
| 2026-04-30 00:10 | -32.84490 | -59.77775 | 35983 ft | 440 kts | 317° |
| 2026-04-30 00:10 | -32.79269 | -59.81588 | 35983 ft | 440 kts | 318° |
| 2026-04-30 00:11 | -32.74052 | -59.85392 | 35985 ft | 440 kts | 318° |
| 2026-04-30 00:11 | -32.68868 | -59.89168 | 35995 ft | 441 kts | 318° |
| 2026-04-30 00:12 | -32.63586 | -59.93009 | 35993 ft | 448 kts | 318° |
| 2026-04-30 00:12 | -32.58237 | -59.96894 | 35992 ft | 454 kts | 318° |
| 2026-04-30 00:13 | -32.52825 | -60.00818 | 35991 ft | 457 kts | 318° |
| 2026-04-30 00:13 | -32.47400 | -60.04746 | 35995 ft | 456 kts | 318° |
| 2026-04-30 00:14 | -32.41980 | -60.08665 | 35965 ft | 456 kts | 319° |
| 2026-04-30 00:14 | -32.36576 | -60.12568 | 35988 ft | 456 kts | 319° |
| 2026-04-30 00:15 | -32.31158 | -60.16474 | 35994 ft | 456 kts | 319° |
| 2026-04-30 00:15 | -32.25740 | -60.20375 | 35995 ft | 456 kts | 319° |
| 2026-04-30 00:16 | -32.20319 | -60.24273 | 35992 ft | 456 kts | 319° |
| 2026-04-30 00:16 | -32.14896 | -60.28167 | 35993 ft | 456 kts | 319° |
| 2026-04-30 00:17 | -32.09505 | -60.32032 | 36001 ft | 456 kts | 319° |
| 2026-04-30 00:17 | -32.04048 | -60.35939 | 36008 ft | 456 kts | 319° |
| 2026-04-30 00:18 | -31.98659 | -60.39792 | 36010 ft | 456 kts | 319° |
| 2026-04-30 00:18 | -31.93244 | -60.43658 | 36015 ft | 455 kts | 319° |
| 2026-04-30 00:19 | -31.87830 | -60.47519 | 36026 ft | 455 kts | 319° |
| 2026-04-30 00:19 | -31.82410 | -60.51377 | 35990 ft | 455 kts | 320° |
| 2026-04-30 00:20 | -31.76994 | -60.55227 | 36021 ft | 455 kts | 320° |
| 2026-04-30 00:20 | -31.71586 | -60.59067 | 36015 ft | 454 kts | 320° |
| 2026-04-30 00:21 | -31.66176 | -60.62904 | 35997 ft | 454 kts | 320° |
| 2026-04-30 00:21 | -31.60757 | -60.66740 | 35984 ft | 454 kts | 320° |
| 2026-04-30 00:22 | -31.55344 | -60.70568 | 36001 ft | 454 kts | 320° |
| 2026-04-30 00:22 | -31.49940 | -60.74384 | 36005 ft | 454 kts | 320° |
| 2026-04-30 00:23 | -31.44530 | -60.78198 | 36006 ft | 453 kts | 320° |
| 2026-04-30 00:23 | -31.39130 | -60.82001 | 36000 ft | 453 kts | 320° |
| 2026-04-30 00:24 | -31.33729 | -60.85800 | 36008 ft | 452 kts | 320° |
| 2026-04-30 00:24 | -31.28334 | -60.89589 | 36010 ft | 452 kts | 320° |
| 2026-04-30 00:25 | -31.22935 | -60.93375 | 36008 ft | 452 kts | 321° |
| 2026-04-30 00:25 | -31.17577 | -60.97128 | 36006 ft | 452 kts | 321° |
| 2026-04-30 00:26 | -31.12185 | -61.00899 | 36019 ft | 451 kts | 321° |
| 2026-04-30 00:26 | -31.07672 | -61.04052 | 36014 ft | 451 kts | 321° |
| 2026-04-30 00:27 | -31.02330 | -61.07885 | 36013 ft | 449 kts | 319° |
| 2026-04-30 00:27 | -30.97076 | -61.11825 | 36015 ft | 449 kts | 320° |
| 2026-04-30 00:28 | -30.91821 | -61.15741 | 36017 ft | 448 kts | 320° |
| 2026-04-30 00:28 | -30.86595 | -61.19629 | 36019 ft | 448 kts | 320° |
| 2026-04-30 00:29 | -30.81335 | -61.23537 | 36016 ft | 448 kts | 320° |
| 2026-04-30 00:29 | -30.76079 | -61.27437 | 36018 ft | 447 kts | 320° |
| 2026-04-30 00:30 | -30.70830 | -61.31326 | 36021 ft | 447 kts | 320° |
| 2026-04-30 00:30 | -30.65582 | -61.35210 | 36030 ft | 447 kts | 320° |
| 2026-04-30 00:31 | -30.60340 | -61.39085 | 36030 ft | 447 kts | 320° |
| 2026-04-30 00:31 | -30.55093 | -61.42958 | 36029 ft | 447 kts | 320° |
| 2026-04-30 00:32 | -30.49846 | -61.46826 | 36028 ft | 447 kts | 320° |
| 2026-04-30 00:32 | -30.44601 | -61.50687 | 36029 ft | 447 kts | 320° |
| 2026-04-30 00:33 | -30.39353 | -61.54545 | 36030 ft | 447 kts | 320° |
| 2026-04-30 00:33 | -30.34140 | -61.58373 | 36024 ft | 446 kts | 321° |
| 2026-04-30 00:34 | -30.28899 | -61.62217 | 36032 ft | 446 kts | 321° |
| 2026-04-30 00:34 | -30.23659 | -61.66055 | 36031 ft | 446 kts | 321° |
| 2026-04-30 00:35 | -30.18416 | -61.69890 | 36028 ft | 446 kts | 321° |
| 2026-04-30 00:35 | -30.13175 | -61.73718 | 36023 ft | 445 kts | 321° |
| 2026-04-30 00:36 | -30.07929 | -61.77546 | 36027 ft | 445 kts | 321° |
| 2026-04-30 00:36 | -30.02691 | -61.81363 | 36031 ft | 445 kts | 321° |
| 2026-04-30 00:37 | -29.97453 | -61.85176 | 36035 ft | 445 kts | 321° |
| 2026-04-30 00:37 | -29.92216 | -61.88983 | 36021 ft | 445 kts | 322° |
| 2026-04-30 00:38 | -29.87038 | -61.92890 | 36022 ft | 439 kts | 313° |
| 2026-04-30 00:38 | -29.82634 | -61.97697 | 36010 ft | 437 kts | 311° |
| 2026-04-30 00:39 | -29.78217 | -62.02509 | 36033 ft | 437 kts | 311° |
| 2026-04-30 00:39 | -29.73805 | -62.07329 | 36009 ft | 437 kts | 311° |
| 2026-04-30 00:40 | -29.69386 | -62.12151 | 36036 ft | 438 kts | 311° |
| 2026-04-30 00:40 | -29.64963 | -62.16971 | 36035 ft | 438 kts | 311° |
| 2026-04-30 00:41 | -29.60534 | -62.21793 | 36041 ft | 438 kts | 311° |
| 2026-04-30 00:41 | -29.56135 | -62.26574 | 36033 ft | 438 kts | 311° |
| 2026-04-30 00:42 | -29.51701 | -62.31387 | 36021 ft | 438 kts | 312° |
| 2026-04-30 00:42 | -29.47261 | -62.36202 | 36034 ft | 439 kts | 312° |
| 2026-04-30 00:43 | -29.42823 | -62.41008 | 36038 ft | 439 kts | 312° |
| 2026-04-30 00:43 | -29.38381 | -62.45813 | 36033 ft | 439 kts | 312° |
| 2026-04-30 00:44 | -29.33939 | -62.50611 | 36035 ft | 439 kts | 312° |
| 2026-04-30 00:44 | -29.29494 | -62.55407 | 36033 ft | 440 kts | 313° |
| 2026-04-30 00:45 | -29.25035 | -62.60211 | 36032 ft | 440 kts | 313° |
| 2026-04-30 00:45 | -29.20576 | -62.65010 | 36034 ft | 440 kts | 313° |
| 2026-04-30 00:46 | -29.16114 | -62.69806 | 36033 ft | 440 kts | 313° |
| 2026-04-30 00:46 | -29.11649 | -62.74599 | 36016 ft | 440 kts | 313° |
| 2026-04-30 00:47 | -29.07203 | -62.79366 | 36039 ft | 442 kts | 313° |
| 2026-04-30 00:47 | -29.02715 | -62.84172 | 36041 ft | 442 kts | 313° |
| 2026-04-30 00:48 | -28.98225 | -62.88974 | 36039 ft | 442 kts | 313° |
| 2026-04-30 00:48 | -28.93733 | -62.93769 | 36037 ft | 442 kts | 313° |
| 2026-04-30 00:49 | -28.89240 | -62.98561 | 36024 ft | 442 kts | 313° |
| 2026-04-30 00:49 | -28.84740 | -63.03354 | 36037 ft | 443 kts | 314° |
| 2026-04-30 00:50 | -28.80237 | -63.08144 | 36040 ft | 443 kts | 314° |
| 2026-04-30 00:50 | -28.75735 | -63.12928 | 36032 ft | 443 kts | 314° |
| 2026-04-30 00:51 | -28.71228 | -63.17711 | 36033 ft | 442 kts | 314° |
| 2026-04-30 00:51 | -28.66726 | -63.22482 | 36034 ft | 442 kts | 314° |
| 2026-04-30 00:52 | -28.62217 | -63.27255 | 36033 ft | 442 kts | 314° |
| 2026-04-30 00:52 | -28.57710 | -63.32020 | 36027 ft | 442 kts | 314° |
| 2026-04-30 00:53 | -28.53231 | -63.36751 | 36035 ft | 442 kts | 314° |
| 2026-04-30 00:53 | -28.48716 | -63.41512 | 36032 ft | 442 kts | 314° |
| 2026-04-30 00:54 | -28.44200 | -63.46269 | 36047 ft | 442 kts | 314° |
| 2026-04-30 00:54 | -28.39687 | -63.51017 | 36037 ft | 442 kts | 314° |
| 2026-04-30 00:55 | -28.35171 | -63.55763 | 36039 ft | 442 kts | 314° |
| 2026-04-30 00:55 | -28.28396 | -63.62871 | 36034 ft | 442 kts | 314° |
| 2026-04-30 00:56 | -28.23877 | -63.67605 | 36026 ft | 443 kts | 315° |
| 2026-04-30 00:56 | -28.19348 | -63.72345 | 36034 ft | 443 kts | 315° |
| 2026-04-30 00:57 | -28.14816 | -63.77081 | 36040 ft | 443 kts | 315° |
| 2026-04-30 00:57 | -28.10281 | -63.81818 | 36042 ft | 443 kts | 315° |
| 2026-04-30 00:58 | -28.05778 | -63.86522 | 36043 ft | 443 kts | 315° |
| 2026-04-30 00:58 | -28.01248 | -63.91265 | 36038 ft | 444 kts | 315° |
| 2026-04-30 00:59 | -27.96712 | -63.96008 | 36040 ft | 444 kts | 315° |
| 2026-04-30 00:59 | -27.92176 | -64.00746 | 36034 ft | 444 kts | 315° |
| 2026-04-30 01:00 | -27.87636 | -64.05483 | 36039 ft | 444 kts | 315° |
| 2026-04-30 01:00 | -27.83099 | -64.10211 | 36030 ft | 444 kts | 315° |
| 2026-04-30 01:01 | -27.78556 | -64.14938 | 36024 ft | 444 kts | 316° |
| 2026-04-30 01:01 | -27.74012 | -64.19662 | 36021 ft | 444 kts | 316° |
| 2026-04-30 01:02 | -27.69461 | -64.24387 | 36021 ft | 444 kts | 316° |
| 2026-04-30 01:02 | -27.64946 | -64.29070 | 36023 ft | 444 kts | 316° |
| 2026-04-30 01:03 | -27.60399 | -64.33779 | 36026 ft | 444 kts | 316° |
| 2026-04-30 01:03 | -27.55845 | -64.38491 | 36035 ft | 444 kts | 316° |
| 2026-04-30 01:04 | -27.51300 | -64.43188 | 36037 ft | 443 kts | 316° |
| 2026-04-30 01:04 | -27.46753 | -64.47882 | 36043 ft | 443 kts | 316° |
| 2026-04-30 01:05 | -27.42206 | -64.52569 | 36050 ft | 443 kts | 316° |
| 2026-04-30 01:05 | -27.37652 | -64.57260 | 36051 ft | 443 kts | 316° |
| 2026-04-30 01:06 | -27.33084 | -64.61925 | 36054 ft | 444 kts | 317° |
| 2026-04-30 01:06 | -27.28501 | -64.66570 | 36053 ft | 444 kts | 317° |
| 2026-04-30 01:07 | -27.23916 | -64.71213 | 36055 ft | 444 kts | 317° |
| 2026-04-30 01:07 | -27.19364 | -64.75819 | 36056 ft | 443 kts | 317° |
| 2026-04-30 01:08 | -27.14748 | -64.80483 | 36061 ft | 444 kts | 317° |
| 2026-04-30 01:08 | -27.10179 | -64.85095 | 36064 ft | 445 kts | 317° |
| 2026-04-30 01:09 | -27.05578 | -64.89734 | 36066 ft | 445 kts | 317° |
| 2026-04-30 01:09 | -27.00945 | -64.94400 | 36068 ft | 445 kts | 317° |
| 2026-04-30 01:10 | -26.96390 | -64.98981 | 36080 ft | 445 kts | 317° |
| 2026-04-30 01:10 | -26.91808 | -65.03585 | 36075 ft | 445 kts | 317° |
| 2026-04-30 01:11 | -26.87197 | -65.08214 | 36073 ft | 444 kts | 317° |
| 2026-04-30 01:11 | -26.82481 | -65.12685 | 36082 ft | 444 kts | 320° |
| 2026-04-30 01:12 | -26.77688 | -65.17058 | 36075 ft | 444 kts | 320° |
| 2026-04-30 01:12 | -26.72905 | -65.21436 | 36079 ft | 444 kts | 320° |
| 2026-04-30 01:13 | -26.68120 | -65.25812 | 36086 ft | 444 kts | 320° |
| 2026-04-30 01:13 | -26.63348 | -65.30172 | 36101 ft | 442 kts | 320° |
| 2026-04-30 01:14 | -26.58587 | -65.34517 | 36102 ft | 442 kts | 320° |
| 2026-04-30 01:14 | -26.53814 | -65.38868 | 36397 ft | 439 kts | 320° |
| 2026-04-30 01:15 | -26.51451 | -65.41021 | 36617 ft | 439 kts | 320° |
| 2026-04-30 01:15 | -26.49883 | -65.42448 | 36747 ft | 439 kts | 320° |
| 2026-04-30 01:15 | -26.47521 | -65.44597 | 36937 ft | 437 kts | 320° |
| 2026-04-30 01:15 | -26.45166 | -65.46739 | 37141 ft | 436 kts | 319° |
| 2026-04-30 01:16 | -26.42819 | -65.48874 | 37328 ft | 434 kts | 319° |
| 2026-04-30 01:16 | -26.40483 | -65.50996 | 37586 ft | 432 kts | 319° |
| 2026-04-30 01:16 | -26.38157 | -65.53107 | 37806 ft | 430 kts | 319° |
| 2026-04-30 01:16 | -26.35845 | -65.55205 | 37995 ft | 428 kts | 318° |
| 2026-04-30 01:17 | -26.33541 | -65.57295 | 38121 ft | 426 kts | 318° |
| 2026-04-30 01:17 | -26.31239 | -65.59382 | 38114 ft | 426 kts | 318° |
| 2026-04-30 01:17 | -26.26665 | -65.63524 | 38104 ft | 424 kts | 318° |
| 2026-04-30 01:18 | -26.22087 | -65.67667 | 38080 ft | 424 kts | 319° |
| 2026-04-30 01:18 | -26.17557 | -65.71763 | 38100 ft | 424 kts | 318° |
| 2026-04-30 01:19 | -26.12968 | -65.75904 | 38084 ft | 425 kts | 318° |
| 2026-04-30 01:19 | -26.08379 | -65.80034 | 38079 ft | 424 kts | 319° |
| 2026-04-30 01:20 | -26.03783 | -65.84167 | 38079 ft | 425 kts | 319° |
| 2026-04-30 01:20 | -25.99183 | -65.88300 | 38069 ft | 425 kts | 319° |
| 2026-04-30 01:21 | -25.94589 | -65.92424 | 38071 ft | 424 kts | 318° |
| 2026-04-30 01:21 | -25.90017 | -65.96522 | 38079 ft | 422 kts | 318° |
| 2026-04-30 01:22 | -25.85441 | -66.00620 | 38083 ft | 422 kts | 318° |
| 2026-04-30 01:22 | -25.80871 | -66.04709 | 38085 ft | 422 kts | 318° |
| 2026-04-30 01:23 | -25.76299 | -66.08796 | 38081 ft | 422 kts | 318° |
| 2026-04-30 01:23 | -25.71726 | -66.12881 | 38085 ft | 422 kts | 318° |
| 2026-04-30 01:24 | -25.67177 | -66.16941 | 38083 ft | 417 kts | 317° |
| 2026-04-30 01:24 | -25.62657 | -66.20970 | 38084 ft | 417 kts | 317° |
| 2026-04-30 01:25 | -25.58129 | -66.25002 | 38082 ft | 417 kts | 317° |
| 2026-04-30 01:25 | -25.53601 | -66.29030 | 38019 ft | 418 kts | 318° |
| 2026-04-30 01:26 | -25.51365 | -66.31018 | 37814 ft | 417 kts | 318° |
| 2026-04-30 01:26 | -25.49102 | -66.33029 | 37572 ft | 418 kts | 318° |
| 2026-04-30 01:26 | -25.46830 | -66.35046 | 37313 ft | 419 kts | 318° |
| 2026-04-30 01:26 | -25.44561 | -66.37061 | 37087 ft | 418 kts | 318° |
| 2026-04-30 01:27 | -25.42297 | -66.39069 | 36871 ft | 418 kts | 318° |
| 2026-04-30 01:27 | -25.40028 | -66.41081 | 36648 ft | 418 kts | 318° |
| 2026-04-30 01:27 | -25.37752 | -66.43098 | 36418 ft | 420 kts | 318° |
| 2026-04-30 01:27 | -25.35465 | -66.45126 | 36194 ft | 422 kts | 319° |
| 2026-04-30 01:28 | -25.33164 | -66.47161 | 35975 ft | 425 kts | 319° |
| 2026-04-30 01:28 | -25.30844 | -66.49215 | 35769 ft | 428 kts | 319° |
| 2026-04-30 01:28 | -25.28512 | -66.51280 | 35529 ft | 431 kts | 319° |
| 2026-04-30 01:28 | -25.26164 | -66.53354 | 35294 ft | 433 kts | 319° |
| 2026-04-30 01:29 | -25.23817 | -66.55428 | 35094 ft | 432 kts | 320° |
| 2026-04-30 01:29 | -25.21465 | -66.57505 | 34883 ft | 433 kts | 319° |
| 2026-04-30 01:29 | -25.19111 | -66.59584 | 34669 ft | 433 kts | 319° |
| 2026-04-30 01:29 | -25.16758 | -66.61659 | 34460 ft | 434 kts | 320° |
| 2026-04-30 01:30 | -25.14393 | -66.63745 | 34233 ft | 436 kts | 320° |
| 2026-04-30 01:30 | -25.12023 | -66.65834 | 34041 ft | 438 kts | 320° |
| 2026-04-30 01:30 | -25.09634 | -66.67939 | 33793 ft | 439 kts | 320° |
| 2026-04-30 01:30 | -25.07242 | -66.70045 | 33550 ft | 441 kts | 320° |
| 2026-04-30 01:31 | -25.04839 | -66.72160 | 33309 ft | 442 kts | 320° |
| 2026-04-30 01:31 | -25.02435 | -66.74274 | 33065 ft | 443 kts | 320° |
| 2026-04-30 01:31 | -25.00020 | -66.76398 | 32832 ft | 444 kts | 320° |
| 2026-04-30 01:31 | -24.97599 | -66.78525 | 32582 ft | 446 kts | 320° |
| 2026-04-30 01:32 | -24.95170 | -66.80658 | 32327 ft | 447 kts | 320° |
| 2026-04-30 01:32 | -24.92741 | -66.82791 | 32127 ft | 447 kts | 320° |
| 2026-04-30 01:32 | -24.87867 | -66.87065 | 32099 ft | 449 kts | 320° |
| 2026-04-30 01:33 | -24.82979 | -66.91348 | 32072 ft | 448 kts | 320° |
| 2026-04-30 01:33 | -24.78114 | -66.95606 | 32070 ft | 447 kts | 320° |
| 2026-04-30 01:34 | -24.73242 | -66.99866 | 32069 ft | 448 kts | 320° |
| 2026-04-30 01:34 | -24.68369 | -67.04123 | 32061 ft | 446 kts | 319° |
| 2026-04-30 01:35 | -24.63549 | -67.08329 | 32062 ft | 445 kts | 319° |
| 2026-04-30 01:35 | -24.58696 | -67.12559 | 32061 ft | 445 kts | 319° |
| 2026-04-30 01:36 | -24.53843 | -67.16785 | 32060 ft | 445 kts | 319° |
| 2026-04-30 01:36 | -24.48994 | -67.21003 | 32054 ft | 445 kts | 319° |
| 2026-04-30 01:37 | -24.44151 | -67.25212 | 32074 ft | 443 kts | 319° |
| 2026-04-30 01:37 | -24.39317 | -67.29409 | 32049 ft | 442 kts | 319° |
| 2026-04-30 01:38 | -24.34485 | -67.33599 | 32076 ft | 442 kts | 319° |
| 2026-04-30 01:38 | -24.29658 | -67.37782 | 32077 ft | 442 kts | 319° |
| 2026-04-30 01:39 | -24.24828 | -67.41963 | 32106 ft | 442 kts | 319° |
| 2026-04-30 01:39 | -24.19996 | -67.46142 | 32104 ft | 442 kts | 319° |
| 2026-04-30 01:40 | -24.15201 | -67.50286 | 32101 ft | 441 kts | 319° |
| 2026-04-30 01:40 | -24.10359 | -67.54425 | 32130 ft | 442 kts | 319° |
| 2026-04-30 01:41 | -24.05490 | -67.58527 | 32126 ft | 441 kts | 320° |
| 2026-04-30 01:41 | -24.00629 | -67.62627 | 32134 ft | 442 kts | 320° |
| 2026-04-30 01:42 | -23.95757 | -67.66731 | 32162 ft | 441 kts | 320° |
| 2026-04-30 01:42 | -23.90893 | -67.70825 | 32133 ft | 441 kts | 319° |
| 2026-04-30 01:43 | -23.86034 | -67.74910 | 32141 ft | 441 kts | 319° |
| 2026-04-30 01:43 | -23.81173 | -67.78993 | 32135 ft | 441 kts | 319° |
| 2026-04-30 01:44 | -23.76308 | -67.83076 | 32084 ft | 441 kts | 320° |
| 2026-04-30 01:44 | -23.71451 | -67.87148 | 32073 ft | 441 kts | 320° |
| 2026-04-30 01:45 | -23.66583 | -67.91225 | 32077 ft | 440 kts | 320° |
| 2026-04-30 01:45 | -23.61755 | -67.95265 | 32014 ft | 440 kts | 320° |
| 2026-04-30 01:46 | -23.56891 | -67.99331 | 32014 ft | 441 kts | 320° |
| 2026-04-30 01:46 | -23.52024 | -68.03395 | 32006 ft | 440 kts | 320° |
| 2026-04-30 01:47 | -23.47160 | -68.07454 | 32010 ft | 440 kts | 320° |
| 2026-04-30 01:47 | -23.42296 | -68.11508 | 32009 ft | 440 kts | 320° |
| 2026-04-30 01:48 | -23.37439 | -68.15553 | 32002 ft | 438 kts | 320° |
| 2026-04-30 01:48 | -23.32594 | -68.19584 | 31984 ft | 438 kts | 320° |
| 2026-04-30 01:49 | -23.27730 | -68.23627 | 31965 ft | 441 kts | 320° |
| 2026-04-30 01:49 | -23.22859 | -68.27672 | 31965 ft | 441 kts | 320° |
| 2026-04-30 01:50 | -23.17983 | -68.31718 | 31974 ft | 441 kts | 320° |
| 2026-04-30 01:50 | -23.13106 | -68.35760 | 31958 ft | 441 kts | 320° |
| 2026-04-30 01:51 | -23.08261 | -68.39772 | 31981 ft | 441 kts | 320° |
| 2026-04-30 01:51 | -23.03383 | -68.43808 | 31977 ft | 440 kts | 320° |
| 2026-04-30 01:52 | -22.98508 | -68.47838 | 32005 ft | 440 kts | 320° |
| 2026-04-30 01:52 | -22.93629 | -68.51865 | 32004 ft | 440 kts | 320° |
| 2026-04-30 01:53 | -22.88751 | -68.55888 | 32010 ft | 441 kts | 320° |
| 2026-04-30 01:53 | -22.83858 | -68.59919 | 32022 ft | 441 kts | 320° |
| 2026-04-30 01:54 | -22.78970 | -68.63943 | 32024 ft | 441 kts | 320° |
| 2026-04-30 01:54 | -22.74077 | -68.67967 | 32074 ft | 441 kts | 320° |
| 2026-04-30 01:55 | -22.69188 | -68.71984 | 32132 ft | 441 kts | 320° |
| 2026-04-30 01:55 | -22.64297 | -68.75999 | 32184 ft | 441 kts | 320° |
| 2026-04-30 01:56 | -22.59409 | -68.80008 | 32239 ft | 441 kts | 320° |
| 2026-04-30 01:56 | -22.54528 | -68.84008 | 32292 ft | 439 kts | 320° |
| 2026-04-30 01:57 | -22.49694 | -68.88053 | 32003 ft | 439 kts | 317° |
| 2026-04-30 01:57 | -22.45042 | -68.92271 | 32003 ft | 439 kts | 318° |
| 2026-04-30 01:58 | -22.40342 | -68.96491 | 31996 ft | 439 kts | 318° |
| 2026-04-30 01:58 | -22.35637 | -69.00709 | 31988 ft | 439 kts | 318° |
| 2026-04-30 01:59 | -22.28584 | -69.07024 | 31989 ft | 439 kts | 318° |
| 2026-04-30 02:00 | -22.23883 | -69.11227 | 31990 ft | 439 kts | 318° |
| 2026-04-30 02:00 | -22.19186 | -69.15425 | 31982 ft | 438 kts | 318° |
| 2026-04-30 02:01 | -22.14485 | -69.19621 | 31986 ft | 438 kts | 318° |
| 2026-04-30 02:01 | -22.09777 | -69.23819 | 31985 ft | 439 kts | 318° |
| 2026-04-30 02:02 | -22.05065 | -69.28019 | 31954 ft | 439 kts | 319° |
| 2026-04-30 02:02 | -22.00363 | -69.32204 | 31964 ft | 438 kts | 319° |
| 2026-04-30 02:03 | -21.96456 | -69.35680 | 31963 ft | 438 kts | 319° |
| 2026-04-30 02:03 | -21.90986 | -69.40541 | 31955 ft | 438 kts | 319° |
| 2026-04-30 02:04 | -21.86281 | -69.44719 | 31958 ft | 438 kts | 319° |
| 2026-04-30 02:04 | -21.82337 | -69.48218 | 31960 ft | 438 kts | 319° |
| 2026-04-30 02:05 | -21.77631 | -69.52389 | 31952 ft | 438 kts | 319° |
| 2026-04-30 02:05 | -21.72961 | -69.56526 | 31965 ft | 437 kts | 319° |
| 2026-04-30 02:06 | -21.68262 | -69.60684 | 31961 ft | 437 kts | 319° |
| 2026-04-30 02:06 | -21.63565 | -69.64837 | 31967 ft | 437 kts | 319° |
| 2026-04-30 02:07 | -21.58865 | -69.68989 | 31968 ft | 437 kts | 319° |
| 2026-04-30 02:07 | -21.54163 | -69.73140 | 31979 ft | 437 kts | 319° |
| 2026-04-30 02:08 | -21.49456 | -69.77290 | 31961 ft | 437 kts | 319° |
| 2026-04-30 02:08 | -21.44762 | -69.81426 | 31983 ft | 436 kts | 319° |
| 2026-04-30 02:09 | -21.40063 | -69.85563 | 31981 ft | 436 kts | 319° |
| 2026-04-30 02:09 | -21.35361 | -69.89698 | 31980 ft | 438 kts | 319° |
| 2026-04-30 02:10 | -21.30648 | -69.93840 | 31988 ft | 438 kts | 319° |
| 2026-04-30 02:10 | -21.25938 | -69.97976 | 31984 ft | 438 kts | 319° |
| 2026-04-30 02:11 | -21.21225 | -70.02111 | 31979 ft | 437 kts | 319° |
| 2026-04-30 02:11 | -21.16520 | -70.06236 | 31988 ft | 437 kts | 319° |
| 2026-04-30 02:12 | -21.11849 | -70.10327 | 31987 ft | 436 kts | 319° |
| 2026-04-30 02:12 | -21.07154 | -70.14436 | 31981 ft | 436 kts | 319° |
| 2026-04-30 02:13 | -21.02452 | -70.18548 | 31983 ft | 436 kts | 319° |
| 2026-04-30 02:13 | -20.97746 | -70.22660 | 31985 ft | 437 kts | 319° |
| 2026-04-30 02:14 | -20.93025 | -70.26781 | 31983 ft | 438 kts | 319° |
| 2026-04-30 02:14 | -20.88305 | -70.30899 | 31982 ft | 438 kts | 319° |
| 2026-04-30 02:15 | -20.83582 | -70.35017 | 31983 ft | 438 kts | 319° |
| 2026-04-30 02:15 | -20.78855 | -70.39134 | 31985 ft | 438 kts | 319° |
| 2026-04-30 02:16 | -20.74133 | -70.43244 | 31988 ft | 438 kts | 319° |
| 2026-04-30 02:16 | -20.69438 | -70.47326 | 31985 ft | 438 kts | 319° |
| 2026-04-30 02:17 | -20.64682 | -70.51458 | 31971 ft | 438 kts | 320° |
| 2026-04-30 02:17 | -20.59999 | -70.55528 | 31985 ft | 437 kts | 320° |
| 2026-04-30 02:18 | -20.55266 | -70.59639 | 31981 ft | 439 kts | 320° |
| 2026-04-30 02:18 | -20.50532 | -70.63747 | 31983 ft | 439 kts | 320° |
| 2026-04-30 02:19 | -20.45797 | -70.67853 | 31980 ft | 439 kts | 320° |
| 2026-04-30 02:19 | -20.41059 | -70.71957 | 31980 ft | 439 kts | 320° |
| 2026-04-30 02:20 | -20.36325 | -70.76054 | 31966 ft | 439 kts | 320° |
| 2026-04-30 02:20 | -20.31602 | -70.80135 | 31980 ft | 437 kts | 320° |
| 2026-04-30 02:21 | -20.26908 | -70.84188 | 31982 ft | 437 kts | 320° |
| 2026-04-30 02:21 | -20.22182 | -70.88265 | 31994 ft | 437 kts | 320° |
| 2026-04-30 02:22 | -20.17444 | -70.92350 | 31982 ft | 439 kts | 320° |
| 2026-04-30 02:22 | -20.12690 | -70.96444 | 31980 ft | 439 kts | 320° |
| 2026-04-30 02:23 | -20.07940 | -71.00532 | 31952 ft | 439 kts | 320° |
| 2026-04-30 02:23 | -20.03195 | -71.04612 | 31973 ft | 438 kts | 320° |
| 2026-04-30 02:24 | -19.98460 | -71.08681 | 31976 ft | 437 kts | 320° |
| 2026-04-30 02:24 | -19.93725 | -71.12745 | 31977 ft | 437 kts | 320° |
| 2026-04-30 02:25 | -19.88994 | -71.16804 | 31976 ft | 437 kts | 320° |
| 2026-04-30 02:25 | -19.84257 | -71.20865 | 31974 ft | 437 kts | 320° |
| 2026-04-30 02:26 | -19.79522 | -71.24920 | 31977 ft | 437 kts | 320° |
| 2026-04-30 02:26 | -19.74787 | -71.28973 | 31974 ft | 436 kts | 320° |
| 2026-04-30 02:27 | -19.70062 | -71.33014 | 31974 ft | 436 kts | 320° |
| 2026-04-30 02:27 | -19.65337 | -71.37052 | 31975 ft | 436 kts | 320° |
| 2026-04-30 02:28 | -19.60641 | -71.41061 | 31976 ft | 436 kts | 320° |
| 2026-04-30 02:28 | -19.55918 | -71.45091 | 31974 ft | 436 kts | 320° |
| 2026-04-30 02:29 | -19.51193 | -71.49119 | 31970 ft | 436 kts | 320° |
| 2026-04-30 02:29 | -19.46467 | -71.53144 | 31970 ft | 435 kts | 320° |
| 2026-04-30 02:30 | -19.41754 | -71.57155 | 31973 ft | 435 kts | 320° |
| 2026-04-30 02:30 | -19.37036 | -71.61169 | 31972 ft | 435 kts | 320° |
| 2026-04-30 02:31 | -19.32314 | -71.65182 | 31971 ft | 435 kts | 320° |
| 2026-04-30 02:31 | -19.27592 | -71.69192 | 31970 ft | 435 kts | 320° |
| 2026-04-30 02:32 | -19.22868 | -71.73201 | 31969 ft | 435 kts | 320° |
| 2026-04-30 02:32 | -19.18146 | -71.77205 | 31962 ft | 434 kts | 320° |
| 2026-04-30 02:33 | -19.13439 | -71.81193 | 31969 ft | 433 kts | 320° |
| 2026-04-30 02:33 | -19.08731 | -71.85179 | 31968 ft | 433 kts | 320° |
| 2026-04-30 02:34 | -19.04068 | -71.89125 | 31968 ft | 433 kts | 320° |
| 2026-04-30 02:34 | -18.99360 | -71.93105 | 31965 ft | 434 kts | 320° |
| 2026-04-30 02:35 | -18.94637 | -71.97095 | 31967 ft | 435 kts | 320° |
| 2026-04-30 02:35 | -18.89913 | -72.01082 | 31954 ft | 435 kts | 320° |
| 2026-04-30 02:36 | -18.85490 | -72.04813 | 31962 ft | 433 kts | 320° |
| 2026-04-30 02:36 | -18.80788 | -72.08777 | 31968 ft | 433 kts | 320° |
| 2026-04-30 02:37 | -18.76081 | -72.12742 | 31960 ft | 433 kts | 320° |
| 2026-04-30 02:37 | -18.71375 | -72.16703 | 31966 ft | 433 kts | 320° |
| 2026-04-30 02:38 | -18.66696 | -72.20638 | 31968 ft | 433 kts | 320° |
| 2026-04-30 02:38 | -18.61991 | -72.24593 | 31973 ft | 433 kts | 320° |
| 2026-04-30 02:39 | -18.57280 | -72.28549 | 31966 ft | 433 kts | 320° |
| 2026-04-30 02:39 | -18.52563 | -72.32508 | 31957 ft | 433 kts | 320° |
| 2026-04-30 02:40 | -18.47852 | -72.36460 | 31971 ft | 433 kts | 320° |
| 2026-04-30 02:40 | -18.43142 | -72.40407 | 31963 ft | 433 kts | 321° |
| 2026-04-30 02:41 | -18.38424 | -72.44359 | 31967 ft | 433 kts | 320° |
| 2026-04-30 02:41 | -18.33712 | -72.48302 | 31970 ft | 433 kts | 321° |
| 2026-04-30 02:42 | -18.28987 | -72.52256 | 31937 ft | 433 kts | 321° |
| 2026-04-30 02:42 | -18.24271 | -72.56201 | 31960 ft | 433 kts | 321° |
| 2026-04-30 02:43 | -18.19556 | -72.60142 | 31957 ft | 433 kts | 321° |
| 2026-04-30 02:43 | -18.14833 | -72.64087 | 31964 ft | 434 kts | 321° |
| 2026-04-30 02:44 | -18.10101 | -72.68036 | 31953 ft | 434 kts | 321° |
| 2026-04-30 02:44 | -18.05364 | -72.71987 | 31954 ft | 434 kts | 321° |
| 2026-04-30 02:45 | -18.00630 | -72.75932 | 31954 ft | 434 kts | 321° |
| 2026-04-30 02:45 | -17.95893 | -72.79878 | 31953 ft | 434 kts | 321° |
| 2026-04-30 02:46 | -17.91190 | -72.83792 | 31962 ft | 434 kts | 321° |
| 2026-04-30 02:46 | -17.86456 | -72.87730 | 31956 ft | 434 kts | 321° |
| 2026-04-30 02:47 | -17.81715 | -72.91670 | 31964 ft | 434 kts | 321° |
| 2026-04-30 02:47 | -17.76977 | -72.95605 | 31959 ft | 434 kts | 321° |
| 2026-04-30 02:48 | -17.72213 | -72.99559 | 31963 ft | 438 kts | 321° |
| 2026-04-30 02:48 | -17.67434 | -73.03522 | 31945 ft | 438 kts | 321° |
| 2026-04-30 02:49 | -17.62671 | -73.07470 | 31954 ft | 436 kts | 321° |
| 2026-04-30 02:49 | -17.57912 | -73.11411 | 31963 ft | 436 kts | 321° |
| 2026-04-30 02:50 | -17.53154 | -73.15349 | 31953 ft | 436 kts | 321° |
| 2026-04-30 02:50 | -17.48393 | -73.19287 | 31957 ft | 436 kts | 321° |
| 2026-04-30 02:51 | -17.43634 | -73.23220 | 31960 ft | 436 kts | 321° |
| 2026-04-30 02:51 | -17.38874 | -73.27152 | 31953 ft | 436 kts | 321° |
| 2026-04-30 02:52 | -17.34119 | -73.31076 | 31953 ft | 435 kts | 321° |
| 2026-04-30 02:52 | -17.30153 | -73.34348 | 31955 ft | 438 kts | 321° |
| 2026-04-30 02:53 | -17.25365 | -73.38295 | 31952 ft | 438 kts | 321° |
| 2026-04-30 02:53 | -17.20597 | -73.42223 | 31952 ft | 438 kts | 321° |
| 2026-04-30 02:54 | -17.15808 | -73.46166 | 31952 ft | 438 kts | 321° |
| 2026-04-30 02:54 | -17.11022 | -73.50103 | 31952 ft | 438 kts | 321° |
| 2026-04-30 02:55 | -17.06235 | -73.54039 | 31955 ft | 438 kts | 321° |
| 2026-04-30 02:55 | -17.01455 | -73.57966 | 31950 ft | 436 kts | 321° |
| 2026-04-30 02:56 | -16.96690 | -73.61877 | 31951 ft | 435 kts | 321° |
| 2026-04-30 02:56 | -16.91927 | -73.65786 | 31956 ft | 436 kts | 321° |
| 2026-04-30 02:57 | -16.87175 | -73.69683 | 31950 ft | 439 kts | 321° |
| 2026-04-30 02:57 | -16.82372 | -73.73618 | 31950 ft | 439 kts | 321° |
| 2026-04-30 02:58 | -16.77571 | -73.77549 | 31948 ft | 439 kts | 321° |
| 2026-04-30 02:58 | -16.72772 | -73.81475 | 31942 ft | 438 kts | 321° |
| 2026-04-30 02:59 | -16.67983 | -73.85393 | 31945 ft | 437 kts | 321° |
| 2026-04-30 02:59 | -16.63202 | -73.89302 | 31947 ft | 437 kts | 321° |
| 2026-04-30 03:00 | -16.58429 | -73.93200 | 31964 ft | 437 kts | 321° |
| 2026-04-30 03:00 | -16.53652 | -73.97096 | 31949 ft | 436 kts | 321° |
| 2026-04-30 03:01 | -16.48874 | -74.00991 | 31955 ft | 437 kts | 321° |
| 2026-04-30 03:01 | -16.44096 | -74.04884 | 31948 ft | 440 kts | 321° |
| 2026-04-30 03:02 | -16.39277 | -74.08807 | 31939 ft | 439 kts | 321° |
| 2026-04-30 03:02 | -16.34470 | -74.12719 | 31941 ft | 439 kts | 322° |
| 2026-04-30 03:03 | -16.29674 | -74.16619 | 31944 ft | 439 kts | 322° |
| 2026-04-30 03:03 | -16.22460 | -74.22480 | 31943 ft | 438 kts | 322° |
| 2026-04-30 03:04 | -16.17644 | -74.26390 | 31942 ft | 439 kts | 322° |
| 2026-04-30 03:04 | -16.12836 | -74.30291 | 31941 ft | 439 kts | 322° |
| 2026-04-30 03:05 | -16.08034 | -74.34184 | 31936 ft | 438 kts | 322° |
| 2026-04-30 03:05 | -16.03234 | -74.38075 | 31943 ft | 439 kts | 322° |
| 2026-04-30 03:06 | -15.98400 | -74.41989 | 31937 ft | 441 kts | 322° |
| 2026-04-30 03:06 | -15.93560 | -74.45906 | 31937 ft | 441 kts | 322° |
| 2026-04-30 03:07 | -15.88722 | -74.49819 | 31943 ft | 441 kts | 322° |
| 2026-04-30 03:07 | -15.83885 | -74.53729 | 31936 ft | 441 kts | 322° |
| 2026-04-30 03:08 | -15.79047 | -74.57637 | 31936 ft | 441 kts | 322° |
| 2026-04-30 03:08 | -15.74248 | -74.61511 | 31941 ft | 439 kts | 322° |
| 2026-04-30 03:09 | -15.69422 | -74.65405 | 31937 ft | 439 kts | 322° |
| 2026-04-30 03:09 | -15.64600 | -74.69293 | 31942 ft | 439 kts | 322° |
| 2026-04-30 03:10 | -15.59777 | -74.73180 | 31941 ft | 439 kts | 322° |
| 2026-04-30 03:10 | -15.54949 | -74.77068 | 31940 ft | 439 kts | 322° |
| 2026-04-30 03:11 | -15.50125 | -74.80950 | 31948 ft | 439 kts | 322° |
| 2026-04-30 03:11 | -15.45297 | -74.84833 | 31936 ft | 439 kts | 322° |
| 2026-04-30 03:12 | -15.40482 | -74.88704 | 31941 ft | 438 kts | 322° |
| 2026-04-30 03:12 | -15.35662 | -74.92577 | 31945 ft | 438 kts | 322° |
| 2026-04-30 03:13 | -15.30845 | -74.96444 | 31949 ft | 438 kts | 322° |
| 2026-04-30 03:13 | -15.26057 | -75.00286 | 31951 ft | 438 kts | 322° |
| 2026-04-30 03:14 | -15.21241 | -75.04147 | 31949 ft | 438 kts | 322° |
| 2026-04-30 03:14 | -15.16418 | -75.08013 | 31940 ft | 440 kts | 322° |
| 2026-04-30 03:15 | -15.11559 | -75.11905 | 31944 ft | 441 kts | 322° |
| 2026-04-30 03:15 | -15.06707 | -75.15789 | 31944 ft | 440 kts | 322° |
| 2026-04-30 03:16 | -15.01866 | -75.19662 | 31941 ft | 440 kts | 322° |
| 2026-04-30 03:16 | -14.97023 | -75.23534 | 31943 ft | 440 kts | 322° |
| 2026-04-30 03:17 | -14.92172 | -75.27410 | 31934 ft | 440 kts | 322° |
| 2026-04-30 03:17 | -14.87327 | -75.31280 | 31931 ft | 440 kts | 322° |
| 2026-04-30 03:18 | -14.82479 | -75.35149 | 31939 ft | 440 kts | 322° |
| 2026-04-30 03:18 | -14.77629 | -75.39018 | 31934 ft | 441 kts | 322° |
| 2026-04-30 03:19 | -14.72772 | -75.42890 | 31932 ft | 440 kts | 322° |
| 2026-04-30 03:19 | -14.67913 | -75.46762 | 31938 ft | 447 kts | 322° |
| 2026-04-30 03:20 | -14.62989 | -75.50683 | 31936 ft | 446 kts | 322° |
| 2026-04-30 03:20 | -14.58071 | -75.54597 | 31936 ft | 447 kts | 322° |
| 2026-04-30 03:21 | -14.53145 | -75.58515 | 31938 ft | 446 kts | 322° |
| 2026-04-30 03:21 | -14.48225 | -75.62426 | 31924 ft | 446 kts | 322° |
| 2026-04-30 03:22 | -14.43308 | -75.66332 | 31931 ft | 445 kts | 322° |
| 2026-04-30 03:22 | -14.38398 | -75.70231 | 31932 ft | 445 kts | 322° |
| 2026-04-30 03:23 | -14.33488 | -75.74127 | 31931 ft | 445 kts | 322° |
| 2026-04-30 03:23 | -14.28576 | -75.78023 | 31933 ft | 445 kts | 322° |
| 2026-04-30 03:24 | -14.23645 | -75.81931 | 31930 ft | 449 kts | 322° |
| 2026-04-30 03:24 | -14.18714 | -75.85838 | 31924 ft | 450 kts | 322° |
| 2026-04-30 03:25 | -14.13753 | -75.89765 | 31914 ft | 450 kts | 322° |
| 2026-04-30 03:25 | -14.08791 | -75.93692 | 31923 ft | 450 kts | 322° |
| 2026-04-30 03:26 | -14.03830 | -75.97616 | 31919 ft | 450 kts | 322° |
| 2026-04-30 03:26 | -13.98869 | -76.01537 | 31916 ft | 450 kts | 322° |
| 2026-04-30 03:27 | -13.93912 | -76.05454 | 31913 ft | 450 kts | 322° |
| 2026-04-30 03:27 | -13.88947 | -76.09374 | 31915 ft | 450 kts | 322° |
| 2026-04-30 03:28 | -13.83986 | -76.13290 | 31911 ft | 450 kts | 322° |
| 2026-04-30 03:28 | -13.79007 | -76.17217 | 31904 ft | 452 kts | 322° |
| 2026-04-30 03:29 | -13.73989 | -76.21139 | 31909 ft | 453 kts | 326° |
| 2026-04-30 03:29 | -13.68588 | -76.24504 | 31909 ft | 454 kts | 327° |
| 2026-04-30 03:30 | -13.63219 | -76.27923 | 31909 ft | 454 kts | 327° |
| 2026-04-30 03:30 | -13.57863 | -76.31353 | 31910 ft | 454 kts | 327° |
| 2026-04-30 03:31 | -13.52543 | -76.34760 | 31911 ft | 454 kts | 327° |
| 2026-04-30 03:31 | -13.47185 | -76.38188 | 31902 ft | 454 kts | 327° |
| 2026-04-30 03:32 | -13.41822 | -76.41619 | 31914 ft | 454 kts | 327° |
| 2026-04-30 03:32 | -13.36454 | -76.45051 | 31917 ft | 454 kts | 327° |
| 2026-04-30 03:33 | -13.31085 | -76.48482 | 31916 ft | 454 kts | 327° |
| 2026-04-30 03:33 | -13.25781 | -76.51869 | 31117 ft | 446 kts | 327° |
| 2026-04-30 03:34 | -13.23139 | -76.53556 | 30300 ft | 448 kts | 327° |
| 2026-04-30 03:34 | -13.20484 | -76.55250 | 29338 ft | 451 kts | 327° |
| 2026-04-30 03:34 | -13.17807 | -76.56958 | 28249 ft | 456 kts | 327° |
| 2026-04-30 03:34 | -13.15094 | -76.58689 | 27118 ft | 462 kts | 327° |
| 2026-04-30 03:35 | -13.12337 | -76.60446 | 25966 ft | 469 kts | 327° |
| 2026-04-30 03:35 | -13.09588 | -76.62200 | 24987 ft | 473 kts | 327° |
| 2026-04-30 03:35 | -13.06791 | -76.63983 | 24409 ft | 466 kts | 327° |
| 2026-04-30 03:35 | -13.04104 | -76.65695 | 24459 ft | 445 kts | 327° |
| 2026-04-30 03:36 | -13.01525 | -76.67338 | 24454 ft | 427 kts | 327° |
| 2026-04-30 03:36 | -12.99054 | -76.68912 | 24458 ft | 410 kts | 327° |
| 2026-04-30 03:36 | -12.96672 | -76.70428 | 24462 ft | 395 kts | 327° |
| 2026-04-30 03:36 | -12.94381 | -76.71887 | 24456 ft | 380 kts | 327° |
| 2026-04-30 03:37 | -12.92151 | -76.73306 | 24441 ft | 377 kts | 327° |
| 2026-04-30 03:37 | -12.89926 | -76.74722 | 24415 ft | 376 kts | 327° |
| 2026-04-30 03:37 | -12.87703 | -76.76136 | 24413 ft | 376 kts | 327° |
| 2026-04-30 03:37 | -12.85480 | -76.77550 | 24425 ft | 376 kts | 327° |
| 2026-04-30 03:38 | -12.83258 | -76.78963 | 24423 ft | 376 kts | 327° |
| 2026-04-30 03:38 | -12.81043 | -76.80371 | 24108 ft | 376 kts | 327° |
| 2026-04-30 03:38 | -12.78794 | -76.81801 | 23434 ft | 384 kts | 327° |
| 2026-04-30 03:38 | -12.76516 | -76.83248 | 22865 ft | 386 kts | 328° |
| 2026-04-30 03:39 | -12.74247 | -76.84690 | 22492 ft | 382 kts | 328° |
| 2026-04-30 03:39 | -12.71999 | -76.86118 | 22124 ft | 378 kts | 328° |
| 2026-04-30 03:39 | -12.69771 | -76.87533 | 21747 ft | 376 kts | 328° |
| 2026-04-30 03:39 | -12.67557 | -76.88939 | 21363 ft | 373 kts | 328° |
| 2026-04-30 03:40 | -12.65385 | -76.90317 | 20985 ft | 371 kts | 328° |
| 2026-04-30 03:40 | -12.63170 | -76.91724 | 20609 ft | 369 kts | 328° |
| 2026-04-30 03:40 | -12.60992 | -76.93106 | 20237 ft | 367 kts | 328° |
| 2026-04-30 03:40 | -12.58842 | -76.94471 | 20029 ft | 360 kts | 329° |
| 2026-04-30 03:41 | -12.57411 | -76.95310 | 19799 ft | 357 kts | 335° |
| 2026-04-30 03:41 | -12.55156 | -76.96394 | 19335 ft | 359 kts | 335° |
| 2026-04-30 03:41 | -12.52891 | -76.97500 | 18869 ft | 362 kts | 335° |
| 2026-04-30 03:41 | -12.50615 | -76.98624 | 18375 ft | 365 kts | 335° |
| 2026-04-30 03:42 | -12.48315 | -76.99769 | 17798 ft | 369 kts | 335° |
| 2026-04-30 03:42 | -12.45992 | -77.00928 | 17233 ft | 372 kts | 335° |
| 2026-04-30 03:42 | -12.43661 | -77.02093 | 16690 ft | 374 kts | 335° |
| 2026-04-30 03:42 | -12.41318 | -77.03263 | 16154 ft | 376 kts | 335° |
| 2026-04-30 03:43 | -12.38965 | -77.04438 | 15619 ft | 377 kts | 335° |
| 2026-04-30 03:43 | -12.36626 | -77.05606 | 15087 ft | 379 kts | 334° |
| 2026-04-30 03:43 | -12.34250 | -77.06792 | 14543 ft | 381 kts | 334° |
| 2026-04-30 03:43 | -12.31876 | -77.07978 | 13987 ft | 376 kts | 334° |
| 2026-04-30 03:44 | -12.29562 | -77.09133 | 13441 ft | 366 kts | 334° |
| 2026-04-30 03:44 | -12.27304 | -77.10259 | 12883 ft | 356 kts | 334° |
| 2026-04-30 03:44 | -12.25103 | -77.11357 | 12378 ft | 347 kts | 334° |
| 2026-04-30 03:44 | -12.22967 | -77.12423 | 11889 ft | 338 kts | 334° |
| 2026-04-30 03:45 | -12.20878 | -77.13465 | 11411 ft | 329 kts | 334° |
| 2026-04-30 03:45 | -12.18845 | -77.14478 | 10948 ft | 321 kts | 334° |
| 2026-04-30 03:45 | -12.16863 | -77.15467 | 10503 ft | 314 kts | 334° |
| 2026-04-30 03:45 | -12.14925 | -77.16433 | 10061 ft | 307 kts | 334° |
| 2026-04-30 03:46 | -12.13021 | -77.17382 | 9594 ft | 301 kts | 334° |
| 2026-04-30 03:46 | -12.11161 | -77.18308 | 9136 ft | 294 kts | 334° |
| 2026-04-30 03:46 | -12.09344 | -77.19213 | 8709 ft | 288 kts | 334° |
| 2026-04-30 03:46 | -12.07552 | -77.20101 | 8271 ft | 286 kts | 334° |
| 2026-04-30 03:47 | -12.05763 | -77.20987 | 7890 ft | 287 kts | 334° |
| 2026-04-30 03:47 | -12.03969 | -77.21877 | 7496 ft | 289 kts | 334° |
| 2026-04-30 03:47 | -12.02150 | -77.22779 | 7080 ft | 292 kts | 334° |
| 2026-04-30 03:47 | -12.00351 | -77.23707 | 6612 ft | 288 kts | 333° |
| 2026-04-30 03:48 | -11.98574 | -77.24635 | 6132 ft | 284 kts | 333° |
| 2026-04-30 03:48 | -11.96838 | -77.25538 | 5719 ft | 276 kts | 333° |
| 2026-04-30 03:48 | -11.95156 | -77.26428 | 5302 ft | 269 kts | 332° |
| 2026-04-30 03:48 | -11.93511 | -77.27299 | 4884 ft | 265 kts | 332° |
| 2026-04-30 03:49 | -11.91889 | -77.28159 | 4455 ft | 261 kts | 332° |
| 2026-04-30 03:49 | -11.90277 | -77.28944 | 4124 ft | 252 kts | 344° |
| 2026-04-30 03:49 | -11.88613 | -77.28914 | 3897 ft | 242 kts | 21° |
| 2026-04-30 03:49 | -11.87343 | -77.27873 | 3725 ft | 235 kts | 59° |
| 2026-04-30 03:50 | -11.86881 | -77.26318 | 3577 ft | 227 kts | 82° |
| 2026-04-30 03:50 | -11.86679 | -77.24756 | 3493 ft | 216 kts | 81° |
| 2026-04-30 03:50 | -11.86463 | -77.23239 | 3450 ft | 219 kts | 81° |
| 2026-04-30 03:50 | -11.86382 | -77.21679 | 3328 ft | 222 kts | 102° |
| 2026-04-30 03:51 | -11.87060 | -77.20287 | 3067 ft | 222 kts | 133° |
| 2026-04-30 03:51 | -11.88320 | -77.19417 | 2821 ft | 219 kts | 156° |
| 2026-04-30 03:51 | -11.89721 | -77.18792 | 2543 ft | 218 kts | 155° |
| 2026-04-30 03:51 | -11.91075 | -77.18146 | 2249 ft | 211 kts | 154° |
| 2026-04-30 03:52 | -11.92344 | -77.17518 | 1986 ft | 193 kts | 154° |
| 2026-04-30 03:52 | -11.93486 | -77.16951 | 1730 ft | 173 kts | 154° |
| 2026-04-30 03:52 | -11.94516 | -77.16439 | 1525 ft | 158 kts | 154° |
| 2026-04-30 03:52 | -11.95484 | -77.15958 | 1320 ft | 152 kts | 154° |
| 2026-04-30 03:53 | -11.96431 | -77.15487 | 1111 ft | 151 kts | 154° |
| 2026-04-30 03:53 | -11.97374 | -77.15008 | 898 ft | 151 kts | 153° |
| 2026-04-30 03:53 | -11.98310 | -77.14524 | 693 ft | 151 kts | 154° |
| 2026-04-30 03:53 | -11.99247 | -77.14067 | 499 ft | 148 kts | 155° |
| 2026-04-30 03:54 | -12.00177 | -77.13614 | 287 ft | 148 kts | 155° |
| 2026-04-30 03:54 | -12.01102 | -77.13157 | 97 ft | 147 kts | 156° |
| 2026-04-30 03:54 | -12.01977 | -77.12730 | 46 ft | 125 kts | 154° |
| 2026-04-30 03:54 | -12.02565 | -77.12440 | 52 ft | 61 kts | 154° |
| 2026-04-30 03:55 | -12.02882 | -77.12283 | 57 ft | 50 kts | 154° |
| 2026-04-30 03:55 | -12.03170 | -77.12141 | 64 ft | 42 kts | 154° |
| 2026-04-30 03:55 | -12.03365 | -77.12045 | 70 ft | 24 kts | 154° |
| 2026-04-30 03:55 | -12.03469 | -77.11990 | 74 ft | 13 kts | 140° |
| 2026-04-30 03:56 | -12.03461 | -77.11905 | 71 ft | 14 kts | 63° |
| 2026-04-30 03:56 | -12.03386 | -77.11859 | 70 ft | 14 kts | 334° |
| 2026-04-30 03:56 | -12.03299 | -77.11903 | 72 ft | 15 kts | 334° |
| 2026-04-30 03:56 | -12.03194 | -77.11954 | 71 ft | 19 kts | 335° |
| 2026-04-30 03:57 | -12.03090 | -77.12005 | 72 ft | 10 kts | 334° |
| 2026-04-30 03:57 | -12.03023 | -77.12039 | 68 ft | 12 kts | 334° |
| 2026-04-30 03:57 | -12.02946 | -77.12035 | 73 ft | 12 kts | 46° |
| 2026-04-30 03:57 | -12.02889 | -77.11992 | 76 ft | 9 kts | 52° |
| 2026-04-30 03:58 | -12.02865 | -77.11944 | 83 ft | 6 kts | 65° |
| 2026-04-30 03:58 | -12.02849 | -77.11911 | 86 ft | 5 kts | 57° |
| 2026-04-30 03:58 | -12.02813 | -77.11890 | 82 ft | 7 kts | 360° |
| 2026-04-30 03:58 | -12.02763 | -77.11911 | 82 ft | 8 kts | 334° |
| 2026-04-30 03:59 | -12.02718 | -77.11934 | 82 ft | 6 kts | 334° |
| 2026-04-30 03:59 | -12.02697 | -77.11944 | 85 ft | 4 kts | 335° |
| 2026-04-30 03:59 | -12.02674 | -77.11936 | 85 ft | 4 kts | 49° |
| 2026-04-30 03:59 | -12.02659 | -77.11908 | 87 ft | 5 kts | 63° |
| 2026-04-30 04:00 | -12.02653 | -77.11897 | 82 ft | 1 kts | 64° |
| 2026-04-30 04:00 | -12.02648 | -77.11885 | 86 ft | 3 kts | 64° |
| 2026-04-30 04:00 | -12.02646 | -77.11881 | 85 ft | 0 kts | 64° |